Steinach, Austria
Current Conditions -  °F | °C
As of 1:50 PM on Thursday 27 Nov 2014 (Local Time) from LOWI Reporting Station
Broken Clouds Broken Clouds  
Wind Chill: 44°   Ceiling: 30000
Heat Index: 48°   Visibility: 6mi
Dew Point: 41°   Wind: 10mph
Humidity: 76%   Direction: 260°W
Pressure: 29.8"   Gusts: NA
Location:  47.08°N, 11.47°E
Report Text: LOWI 271150Z 26009KT 9999 FEW055 SCT140 BKN300 09/05 Q1009 NOSIG
Loading
Personal Weather Stations






























Interactive Weather Map New forecast layout! Learn more

10-Day Weather Forecast

Advertisements
Track Severe Weather on mobile